Time;durP1;ratioP1;P1;durP2;ratioP2;P2;SDS_P1;SDS_P2;PMS_P1;PMS_P2;Temp;Humidity;BMP_temperature;BMP_pressure;BME280_temperature;BME280_humidity;BME280_pressure;Samples;Min_cycle;Max_cycle;Signal;HPM_P1;HPM_P2
2021/12/05 00:24:05;;;;;;;14.23;3.58;;;;;;;1.31;98.86;97828.16;5012012;28;20044;-61
2021/12/05 00:26:32;;;;;;;9.60;2.97;;;;;;;1.42;98.50;97836.16;5003904;28;20500;-61
2021/12/05 00:31:51;;;;;;;9.18;3.03;;;;;;;1.58;97.94;97839.28;5012502;28;20045;-61
2021/12/05 00:55:49;;;;;;;16.58;2.50;;;;;;;1.63;97.25;97845.50;5009243;28;20048;-61
2021/12/05 01:06:56;;;;;;;12.43;2.33;;;;;;;1.89;95.20;97851.53;5005596;28;19932;-59
2021/12/05 01:09:39;;;;;;;18.42;3.42;;;;;;;1.89;95.00;97848.88;5003979;28;20038;-59
2021/12/05 01:17:18;;;;;;;13.25;3.47;;;;;;;1.84;94.84;97844.25;5002910;28;20076;-62
2021/12/05 01:19:44;;;;;;;10.80;3.28;;;;;;;1.90;94.81;97838.09;5004761;28;20755;-60
2021/12/05 01:22:12;;;;;;;12.90;3.17;;;;;;;1.87;95.37;97837.72;5011072;28;20471;-59
2021/12/05 01:30:05;;;;;;;13.50;2.90;;;;;;;1.82;94.15;97848.97;5003610;28;20038;-61
2021/12/05 01:35:39;;;;;;;12.35;3.00;;;;;;;1.84;94.33;97854.03;5003542;28;20041;-60
2021/12/05 01:38:20;;;;;;;15.52;2.80;;;;;;;1.84;94.42;97854.03;5003704;28;20042;-60
2021/12/05 01:51:53;;;;;;;15.90;2.60;;;;;;;1.86;94.08;97865.19;5012783;28;20125;-60
2021/12/05 02:29:57;;;;;;;2.65;1.77;;;;;;;2.05;90.96;97858.88;5003427;28;20594;-60
2021/12/05 02:41:22;;;;;;;11.27;2.90;;;;;;;1.78;92.26;97870.75;5006467;28;20060;-60
2021/12/05 02:43:36;;;;;;;10.25;2.70;;;;;;;1.86;92.32;97863.34;5008654;28;20038;-60
2021/12/05 02:46:04;;;;;;;16.50;3.47;;;;;;;1.90;91.91;97863.72;5002129;28;20049;-61
2021/12/05 02:48:32;;;;;;;10.98;3.30;;;;;;;2.03;91.33;97860.94;5006187;28;20108;-61
2021/12/05 02:50:59;;;;;;;9.23;2.65;;;;;;;2.00;91.58;97847.34;5007911;28;20045;-61
2021/12/05 02:53:35;;;;;;;12.38;3.15;;;;;;;1.94;92.13;97847.19;5003324;28;20045;-61
2021/12/05 02:56:01;;;;;;;10.93;3.28;;;;;;;1.92;91.79;97845.78;5002185;28;20042;-60
2021/12/05 03:03:32;;;;;;;9.70;2.55;;;;;;;1.89;92.10;97836.47;5003152;28;20042;-61
2021/12/05 03:06:04;;;;;;;7.03;2.50;;;;;;;1.89;92.30;97838.31;5002266;28;20116;-61
2021/12/05 03:08:30;;;;;;;6.15;2.30;;;;;;;1.82;92.51;97830.47;5002789;28;20099;-61
2021/12/05 03:10:57;;;;;;;11.00;2.67;;;;;;;1.75;92.88;97831.56;5001261;28;20468;-62
2021/12/05 03:13:22;;;;;;;15.43;4.47;;;;;;;1.77;92.20;97825.03;5009085;28;20538;-61
2021/12/05 03:15:48;;;;;;;6.95;2.78;;;;;;;1.75;93.24;97824.47;5004124;28;20042;-61
2021/12/05 03:18:14;;;;;;;13.52;3.10;;;;;;;1.68;92.68;97818.44;5006665;28;20227;-62
2021/12/05 03:20:40;;;;;;;13.70;2.97;;;;;;;1.71;92.57;97807.44;5004656;28;20160;-60
2021/12/05 03:23:05;;;;;;;10.63;2.75;;;;;;;1.70;92.50;97811.09;5005861;28;20041;-60
2021/12/05 03:25:31;;;;;;;8.73;2.78;;;;;;;1.67;92.71;97807.06;5006381;28;20053;-60
2021/12/05 03:27:56;;;;;;;13.45;2.80;;;;;;;1.64;92.72;97817.25;5006118;28;20863;-60
2021/12/05 03:30:23;;;;;;;11.02;2.60;;;;;;;1.67;92.35;97811.53;5005223;28;20049;-61
2021/12/05 03:32:50;;;;;;;7.28;2.65;;;;;;;1.65;92.67;97824.16;5006499;28;20033;-60
2021/12/05 03:35:16;;;;;;;17.95;3.05;;;;;;;1.70;92.59;97821.66;5005047;28;20495;-60
2021/12/05 03:37:41;;;;;;;11.02;2.97;;;;;;;1.76;92.67;97825.25;5010897;28;20147;-60
2021/12/05 03:40:09;;;;;;;8.98;2.60;;;;;;;1.88;92.02;97820.88;5006017;28;20064;-60
2021/12/05 03:42:34;;;;;;;11.55;3.58;;;;;;;1.87;92.02;97825.34;5006165;28;20054;-60
2021/12/05 03:45:00;;;;;;;5.80;2.60;;;;;;;2.00;91.62;97827.03;5010170;28;20056;-60
2021/12/05 03:47:28;;;;;;;10.55;2.70;;;;;;;1.89;91.69;97825.09;5007081;28;20057;-61
2021/12/05 03:49:54;;;;;;;7.43;2.50;;;;;;;1.98;92.05;97833.56;5010674;28;20476;-60
2021/12/05 03:52:19;;;;;;;9.88;3.00;;;;;;;1.99;91.45;97833.31;5015090;28;20516;-61
2021/12/05 03:54:45;;;;;;;7.65;2.88;;;;;;;1.91;92.06;97837.06;5005947;28;20467;-60
2021/12/05 03:57:11;;;;;;;10.13;2.85;;;;;;;1.96;91.54;97835.63;5007347;28;20046;-60
2021/12/05 03:59:36;;;;;;;5.55;2.28;;;;;;;2.03;91.31;97833.69;5011890;28;20091;-61
2021/12/05 04:02:05;;;;;;;7.70;2.13;;;;;;;2.15;90.41;97845.16;5005269;28;20053;-60
2021/12/05 04:04:31;;;;;;;9.30;2.78;;;;;;;2.10;91.13;97826.50;5012155;28;20297;-59
2021/12/05 04:06:57;;;;;;;5.82;2.40;;;;;;;2.06;90.84;97830.59;5004778;28;20480;-59
2021/12/05 04:09:22;;;;;;;4.43;2.50;;;;;;;2.08;90.40;97825.91;5004902;28;20500;-59
2021/12/05 04:11:58;;;;;;;13.38;3.05;;;;;;;2.04;90.32;97816.81;5006540;28;20514;-59
2021/12/05 04:14:30;;;;;;;4.63;2.50;;;;;;;2.00;90.59;97816.47;5009990;28;20030;-59
2021/12/05 04:16:55;;;;;;;7.65;2.45;;;;;;;1.99;90.52;97819.31;5014166;28;20146;-59
2021/12/05 04:19:21;;;;;;;12.98;2.60;;;;;;;2.01;90.29;97820.69;5015854;28;20030;-59
2021/12/05 04:21:46;;;;;;;10.52;2.88;;;;;;;2.04;90.21;97822.88;5004326;28;20324;-59
2021/12/05 04:24:12;;;;;;;9.65;2.03;;;;;;;2.10;89.31;97821.22;5004906;28;20080;-59
2021/12/05 04:26:38;;;;;;;7.70;2.42;;;;;;;2.06;89.57;97817.41;5007355;28;20042;-59
2021/12/05 04:29:04;;;;;;;7.32;2.35;;;;;;;2.04;89.63;97808.88;5009007;28;20030;-61
2021/12/05 04:31:30;;;;;;;9.60;2.33;;;;;;;2.04;89.85;97806.22;5004798;28;20054;-62
2021/12/05 04:33:55;;;;;;;12.88;2.85;;;;;;;2.06;89.70;97794.41;5008795;28;20045;-61
2021/12/05 04:36:21;;;;;;;7.70;2.17;;;;;;;2.12;89.80;97803.28;5004284;28;20050;-61
2021/12/05 04:38:47;;;;;;;9.68;2.50;;;;;;;2.08;89.64;97802.13;5004706;28;20062;-61
2021/12/05 04:41:12;;;;;;;11.13;2.63;;;;;;;2.09;89.86;97798.44;5009388;28;20053;-61
2021/12/05 04:43:38;;;;;;;11.82;2.55;;;;;;;2.08;89.89;97791.56;5009111;28;20458;-61
2021/12/05 04:46:05;;;;;;;15.05;2.63;;;;;;;2.03;90.74;97796.69;5014613;28;20644;-61
2021/12/05 04:48:30;;;;;;;8.07;2.78;;;;;;;1.96;90.82;97791.50;5005505;28;20037;-61
2021/12/05 04:50:56;;;;;;;7.82;3.17;;;;;;;1.97;91.08;97790.44;5003325;28;20056;-61
2021/12/05 04:53:22;;;;;;;10.68;2.70;;;;;;;1.92;91.01;97793.78;5004435;28;20072;-61
2021/12/05 04:55:47;;;;;;;6.00;2.40;;;;;;;1.98;90.55;97791.28;5004203;28;20038;-60
2021/12/05 04:58:13;;;;;;;4.38;2.35;;;;;;;1.88;90.89;97786.50;5002591;28;20033;-60
2021/12/05 05:00:41;;;;;;;8.02;2.90;;;;;;;1.83;91.48;97784.53;5004068;28;20042;-60
2021/12/05 05:03:07;;;;;;;17.92;3.08;;;;;;;1.83;91.29;97792.47;5008192;28;20593;-60
2021/12/05 05:05:33;;;;;;;7.80;2.53;;;;;;;1.87;91.52;97780.44;5008109;28;20050;-60
2021/12/05 05:07:59;;;;;;;14.18;2.72;;;;;;;1.81;91.65;97789.22;5004286;28;20033;-60
2021/12/05 05:10:30;;;;;;;4.90;2.60;;;;;;;1.82;92.08;97782.94;5007361;28;20038;-60
2021/12/05 05:12:55;;;;;;;10.48;2.58;;;;;;;1.77;91.91;97792.53;5004226;28;20538;-60
2021/12/05 05:15:24;;;;;;;5.95;2.90;;;;;;;1.79;92.43;97778.06;5009690;28;20049;-60
2021/12/05 05:17:50;;;;;;;4.43;2.42;;;;;;;1.73;92.96;97781.59;5003457;28;20030;-60
2021/12/05 05:20:27;;;;;;;9.45;3.08;;;;;;;1.75;92.69;97776.09;5001861;28;20036;-60
2021/12/05 05:42:12;;;;;;;5.40;2.92;;;;;;;1.37;93.55;97783.19;5014885;28;20135;-60
2021/12/05 05:49:52;;;;;;;9.93;3.20;;;;;;;1.41;93.15;97797.56;5003983;28;20084;-60
2021/12/05 05:52:18;;;;;;;11.15;3.00;;;;;;;1.35;93.80;97802.91;5015685;28;20046;-60
2021/12/05 05:54:46;;;;;;;7.55;2.85;;;;;;;1.47;94.07;97807.28;5003340;28;20052;-60
2021/12/05 05:57:37;;;;;;;6.55;2.85;;;;;;;1.31;94.40;97807.81;5003196;28;20049;-60
2021/12/05 06:00:28;;;;;;;7.35;3.30;;;;;;;1.31;94.69;97807.81;5002905;28;20041;-60
2021/12/05 06:03:39;;;;;;;9.43;2.95;;;;;;;1.21;94.55;97807.50;5019021;28;20052;-60
2021/12/05 06:05:40;;;;;;;6.78;2.60;;;;;;;1.15;95.03;97808.38;5006749;28;20557;-60
2021/12/05 06:08:06;;;;;;;7.40;3.10;;;;;;;1.21;95.40;97813.59;5010325;28;20034;-60
2021/12/05 06:10:31;;;;;;;11.00;3.30;;;;;;;1.26;95.28;97812.94;5003206;28;20420;-60
2021/12/05 06:12:58;;;;;;;6.38;3.33;;;;;;;1.27;95.57;97817.19;5009573;28;20293;-60
2021/12/05 06:15:24;;;;;;;6.63;2.78;;;;;;;1.41;94.50;97813.41;5003499;28;20153;-60
2021/12/05 06:17:50;;;;;;;6.22;2.92;;;;;;;1.48;94.02;97816.00;5003174;28;20034;-60
2021/12/05 06:20:17;;;;;;;9.88;2.72;;;;;;;1.43;94.42;97816.66;5009175;28;20056;-60
2021/12/05 06:22:43;;;;;;;15.02;2.90;;;;;;;1.46;94.73;97816.22;5006538;28;20030;-60
2021/12/05 06:25:12;;;;;;;9.57;2.88;;;;;;;1.50;94.45;97827.16;5002732;28;20065;-60
2021/12/05 06:27:39;;;;;;;10.57;3.35;;;;;;;1.49;94.94;97828.16;5007959;28;20624;-60
2021/12/05 06:30:11;;;;;;;6.80;3.15;;;;;;;1.45;94.78;97841.00;5002387;28;20032;-59
2021/12/05 06:38:40;;;;;;;4.00;2.22;;;;;;;1.51;94.63;97834.84;5013263;28;20117;-60
2021/12/05 06:41:12;;;;;;;4.93;2.17;;;;;;;1.56;94.94;97842.13;5010329;28;20470;-60
2021/12/05 06:46:18;;;;;;;7.40;2.10;;;;;;;1.49;94.62;97836.09;5001736;28;20049;-60
2021/12/05 06:48:44;;;;;;;6.00;2.30;;;;;;;1.49;94.49;97842.16;5003055;28;20022;-60
2021/12/05 06:51:14;;;;;;;4.63;2.17;;;;;;;1.45;95.06;97841.00;5006151;28;20125;-60
2021/12/05 06:53:40;;;;;;;6.93;2.00;;;;;;;1.55;94.36;97837.88;5010697;28;20036;-60
2021/12/05 06:56:06;;;;;;;4.47;2.22;;;;;;;1.56;94.88;97846.59;5012542;28;20037;-60
2021/12/05 06:58:32;;;;;;;3.85;2.10;;;;;;;1.59;94.81;97846.94;5004563;28;20041;-60
2021/12/05 07:01:01;;;;;;;4.90;2.30;;;;;;;1.60;94.81;97858.31;5004001;28;20403;-60
2021/12/05 07:03:27;;;;;;;5.35;1.98;;;;;;;1.67;94.28;97848.50;5004326;28;20487;-60
2021/12/05 07:06:00;;;;;;;6.00;2.42;;;;;;;1.70;94.21;97853.38;5001217;28;20052;-61
2021/12/05 07:08:30;;;;;;;7.45;2.30;;;;;;;1.85;95.80;97856.47;5003129;28;20471;-60
2021/12/05 07:16:20;;;;;;;3.92;2.15;;;;;;;1.82;95.22;97867.47;5002197;28;20073;-61
2021/12/05 07:19:04;;;;;;;7.15;2.95;;;;;;;1.74;95.87;97865.09;5014587;28;20339;-61
2021/12/05 07:24:39;;;;;;;3.15;2.45;;;;;;;1.68;95.78;97868.63;5004973;28;20042;-59
2021/12/05 07:27:12;;;;;;;7.18;2.42;;;;;;;1.68;96.34;97866.78;5003744;28;20096;-59
2021/12/05 07:40:35;;;;;;;2.83;1.77;;;;;;;1.67;95.85;97872.28;5011327;28;20057;-61
2021/12/05 07:43:06;;;;;;;4.93;2.35;;;;;;;1.50;96.12;97875.50;5011060;28;20053;-59
2021/12/05 07:45:42;;;;;;;2.55;1.48;;;;;;;1.48;96.00;97882.81;5004121;28;20046;-59
2021/12/05 07:48:13;;;;;;;4.43;2.20;;;;;;;1.47;95.90;97878.56;5007087;28;20036;-60
2021/12/05 07:50:48;;;;;;;4.40;1.73;;;;;;;1.49;95.97;97884.41;5003291;28;20153;-59
2021/12/05 07:53:21;;;;;;;5.40;2.28;;;;;;;1.45;96.21;97893.00;5009067;28;20050;-59
2021/12/05 07:55:50;;;;;;;7.13;2.50;;;;;;;1.50;96.14;97890.53;5005905;28;20404;-59
2021/12/05 07:58:44;;;;;;;4.53;2.50;;;;;;;1.56;95.78;97891.50;5005760;28;20108;-60
2021/12/05 08:14:57;;;;;;;4.18;1.95;;;;;;;1.94;92.57;97913.25;5014388;28;20163;-60
2021/12/05 08:17:22;;;;;;;4.82;2.28;;;;;;;2.08;92.65;97902.56;5004957;28;20564;-60
2021/12/05 08:19:48;;;;;;;4.45;2.03;;;;;;;2.01;92.20;97899.19;5005010;28;20480;-60
2021/12/05 08:22:14;;;;;;;5.15;2.00;;;;;;;2.11;91.52;97908.22;5016444;28;20057;-61
2021/12/05 08:24:41;;;;;;;7.05;2.30;;;;;;;2.11;91.70;97912.69;5024957;28;20464;-60
2021/12/05 08:27:09;;;;;;;2.75;1.67;;;;;;;2.08;91.60;97908.66;5009617;28;20175;-60
2021/12/05 08:29:44;;;;;;;5.57;2.00;;;;;;;2.17;91.83;97917.09;5018312;28;20515;-60
2021/12/05 08:32:55;;;;;;;7.80;2.05;;;;;;;2.22;92.40;97925.19;5002377;28;20484;-60
2021/12/05 08:40:36;;;;;;;4.65;2.28;;;;;;;1.99;92.40;97932.94;5003299;28;20072;-60
2021/12/05 09:21:18;;;;;;;4.75;2.10;;;;;;;2.30;92.13;97972.47;5012776;28;20072;-61
2021/12/05 10:35:25;;;;;;;2.42;1.70;;;;;;;2.70;92.23;97995.84;5017650;28;20095;-59
2021/12/05 10:37:09;;;;;;;9.05;3.25;;;;;;;3.19;90.58;97987.88;5005265;28;20446;-60
2021/12/05 10:39:35;;;;;;;6.13;2.63;;;;;;;2.97;88.91;97985.75;5002839;28;20034;-60
2021/12/05 10:42:13;;;;;;;9.30;2.67;;;;;;;2.96;90.34;97983.31;5001226;28;20057;-60
2021/12/05 10:44:43;;;;;;;26.50;9.35;;;;;;;3.18;89.28;97976.50;5001827;28;20136;-60
2021/12/05 10:47:10;;;;;;;12.23;4.88;;;;;;;3.14;89.09;97977.97;5002332;28;20133;-60
2021/12/05 10:49:36;;;;;;;3.15;1.77;;;;;;;2.80;89.93;97971.50;5003022;28;20147;-60
2021/12/05 10:52:02;;;;;;;3.47;2.17;;;;;;;3.06;89.51;97973.00;5001084;28;20152;-60
2021/12/05 10:54:27;;;;;;;4.85;2.20;;;;;;;3.01;89.04;97978.16;5003083;28;20491;-60
2021/12/05 10:57:00;;;;;;;9.02;3.65;;;;;;;3.01;89.15;97975.50;5010583;28;20567;-60
2021/12/05 10:59:32;;;;;;;4.88;2.08;;;;;;;3.00;89.95;97984.47;5014660;28;20033;-59
2021/12/05 11:01:59;;;;;;;4.45;1.90;;;;;;;2.89;89.66;97972.00;5001049;28;20048;-62
2021/12/05 11:04:30;;;;;;;5.95;2.00;;;;;;;3.04;89.06;97967.09;5003935;28;20345;-61
2021/12/05 11:06:57;;;;;;;5.03;1.80;;;;;;;3.18;88.46;97962.44;5000673;28;20053;-59
2021/12/05 11:09:33;;;;;;;4.72;2.15;;;;;;;3.38;88.29;97970.09;5001996;28;20459;-59
2021/12/05 11:12:16;;;;;;;7.00;4.28;;;;;;;3.11;88.29;97965.19;5002062;28;20045;-60
2021/12/05 11:14:45;;;;;;;6.00;2.38;;;;;;;3.04;88.34;97969.75;5002631;28;20121;-59
2021/12/05 11:17:22;;;;;;;11.63;3.63;;;;;;;3.38;87.13;97978.84;5002355;28;20314;-61
2021/12/05 11:19:59;;;;;;;10.23;3.70;;;;;;;3.48;86.22;97969.56;5001250;28;20073;-60
2021/12/05 11:22:27;;;;;;;7.22;4.25;;;;;;;3.64;85.54;97975.00;5004880;28;20046;-60
2021/12/05 11:24:57;;;;;;;1.50;1.27;;;;;;;3.30;83.99;97970.44;5011528;28;20136;-59
2021/12/05 11:27:24;;;;;;;11.05;5.70;;;;;;;3.77;83.97;97978.44;5007752;28;20041;-60
2021/12/05 11:30:13;;;;;;;4.03;1.73;;;;;;;3.68;81.26;97975.34;5008228;28;20038;-62
2021/12/05 11:32:40;;;;;;;8.45;3.25;;;;;;;3.81;81.46;97974.31;5002293;28;20133;-61
2021/12/05 11:35:35;;;;;;;4.40;2.30;;;;;;;3.88;81.34;97967.06;5003669;28;20042;-61
2021/12/05 11:38:09;;;;;;;3.78;1.60;;;;;;;3.86;82.62;97983.19;5019363;28;20033;-61
2021/12/05 11:40:44;;;;;;;7.22;2.30;;;;;;;3.65;83.57;97981.91;5007147;28;20673;-61
2021/12/05 11:43:12;;;;;;;3.53;1.40;;;;;;;3.64;84.50;97975.00;5005985;28;20037;-60
2021/12/05 11:45:56;;;;;;;5.32;2.15;;;;;;;3.56;84.51;97975.31;5013236;28;20055;-60
2021/12/05 11:48:27;;;;;;;12.35;5.35;;;;;;;3.71;84.23;97974.06;5006057;28;20377;-59
2021/12/05 11:50:52;;;;;;;5.97;2.60;;;;;;;3.75;84.12;97981.34;5005682;28;20132;-60
2021/12/05 11:53:40;;;;;;;3.97;2.58;;;;;;;3.94;82.02;97978.59;5006915;28;20033;-60
2021/12/05 11:56:06;;;;;;;10.82;4.65;;;;;;;3.92;83.16;97983.31;5011929;28;20225;-59
2021/12/05 11:58:31;;;;;;;40.63;18.02;;;;;;;3.98;83.01;97982.41;5006445;28;20044;-60
2021/12/05 12:01:06;;;;;;;13.75;5.20;;;;;;;3.93;83.10;97977.78;5004001;28;20054;-60
2021/12/05 12:03:32;;;;;;;27.55;12.45;;;;;;;4.07;82.73;97984.47;5016333;28;20167;-60
2021/12/05 12:05:58;;;;;;;13.25;5.53;;;;;;;4.13;83.33;97981.94;5013012;28;20045;-60
2021/12/05 12:08:24;;;;;;;32.00;15.20;;;;;;;4.09;85.07;97979.75;5007976;28;20030;-60
2021/12/05 12:10:57;;;;;;;5.25;3.10;;;;;;;4.20;82.53;97982.63;5018080;28;20471;-60
2021/12/05 12:13:25;;;;;;;8.90;4.32;;;;;;;4.19;82.13;97981.81;5006183;28;20104;-60
2021/12/05 12:15:58;;;;;;;5.07;2.75;;;;;;;4.13;81.29;97972.13;5005256;28;20149;-60
2021/12/05 12:18:28;;;;;;;16.60;7.22;;;;;;;4.14;82.92;97978.25;5020003;28;20029;-60
2021/12/05 12:20:59;;;;;;;15.70;6.35;;;;;;;4.24;82.60;97974.00;5015444;28;20037;-60
2021/12/05 12:23:25;;;;;;;11.95;4.88;;;;;;;4.24;82.69;97979.28;5005179;28;20388;-60
2021/12/05 12:25:52;;;;;;;7.78;2.85;;;;;;;4.23;81.42;97971.56;5004538;28;20145;-61
2021/12/05 12:28:18;;;;;;;7.40;2.55;;;;;;;4.00;80.81;97972.38;5005865;28;20037;-60
2021/12/05 12:30:45;;;;;;;9.95;2.50;;;;;;;4.24;80.92;97973.16;5008642;28;20046;-62
2021/12/05 12:33:20;;;;;;;6.45;3.97;;;;;;;4.25;81.67;97972.94;5020689;28;20484;-61
2021/12/05 12:35:47;;;;;;;9.00;4.43;;;;;;;4.18;81.21;97966.94;5004930;28;20052;-61
2021/12/05 12:38:16;;;;;;;10.93;2.60;;;;;;;4.26;80.12;97971.09;5005329;28;20034;-61
2021/12/05 12:40:44;;;;;;;5.53;2.97;;;;;;;4.25;80.56;97967.63;5003123;28;20046;-61
2021/12/05 12:43:41;;;;;;;9.50;3.63;;;;;;;4.36;80.16;97965.19;5010691;28;20022;-61
2021/12/05 12:46:28;;;;;;;10.15;4.07;;;;;;;4.47;80.46;97981.09;5004076;28;20055;-60
2021/12/05 12:49:00;;;;;;;4.68;2.38;;;;;;;4.41;79.32;97970.63;5011516;28;20713;-60
2021/12/05 12:51:25;;;;;;;8.35;2.53;;;;;;;4.43;79.58;97976.50;5008374;28;20601;-60
2021/12/05 12:53:58;;;;;;;5.00;1.80;;;;;;;4.47;78.98;97983.75;5005183;28;20066;-61
2021/12/05 12:56:24;;;;;;;7.45;2.55;;;;;;;4.58;79.65;97995.38;5004764;28;20669;-60
2021/12/05 12:58:57;;;;;;;9.25;4.22;;;;;;;4.38;80.00;97993.09;5010703;28;20037;-60
2021/12/05 13:10:06;;;;;;;16.95;6.13;;;;;;;4.74;78.85;97992.03;5004777;28;20091;-61
2021/12/05 13:12:44;;;;;;;7.22;3.13;;;;;;;4.47;79.40;97988.25;5004843;28;20070;-60
2021/12/05 13:15:42;;;;;;;7.70;2.67;;;;;;;4.38;79.73;97985.16;5009132;28;20037;-61
2021/12/05 13:18:07;;;;;;;7.45;2.70;;;;;;;4.28;79.51;97990.22;5002584;28;20042;-61
2021/12/05 13:20:53;;;;;;;7.68;3.58;;;;;;;4.56;79.71;97991.34;5004027;28;20060;-60
2021/12/05 13:23:34;;;;;;;10.27;4.68;;;;;;;4.39;80.17;97997.38;5004743;28;20030;-60
2021/12/05 13:26:18;;;;;;;5.82;2.45;;;;;;;4.36;80.48;97997.84;5004923;28;20116;-60
2021/12/05 13:28:51;;;;;;;5.95;2.47;;;;;;;4.29;78.91;97997.13;5006482;28;20098;-61
2021/12/05 13:31:30;;;;;;;7.93;3.70;;;;;;;4.27;80.10;97999.25;5008377;28;20045;-61
2021/12/05 13:34:20;;;;;;;5.60;2.38;;;;;;;4.35;79.46;98006.84;5015194;28;20029;-61
2021/12/05 13:37:05;;;;;;;4.00;1.70;;;;;;;4.25;79.51;98014.56;5005891;28;20069;-61
2021/12/05 13:39:35;;;;;;;4.85;2.53;;;;;;;4.24;80.52;98016.44;5004905;28;20029;-60
2021/12/05 13:42:26;;;;;;;8.48;2.05;;;;;;;4.29;81.80;98023.66;5004284;28;20129;-60
2021/12/05 13:45:04;;;;;;;4.43;1.67;;;;;;;4.03;80.19;98025.75;5012918;28;20041;-60
2021/12/05 13:48:07;;;;;;;3.25;1.30;;;;;;;3.95;81.73;98023.44;5011128;28;20087;-60
2021/12/05 13:50:38;;;;;;;6.28;1.77;;;;;;;3.98;82.02;98022.16;5006923;28;20409;-60
2021/12/05 13:53:03;;;;;;;3.17;1.52;;;;;;;4.10;82.12;98029.09;5004548;28;20030;-60
2021/12/05 13:55:42;;;;;;;4.32;2.60;;;;;;;4.01;81.30;98027.81;5003998;28;20448;-60
2021/12/05 13:58:16;;;;;;;4.78;1.75;;;;;;;3.76;80.71;98029.84;5004641;28;20088;-61
2021/12/05 14:01:00;;;;;;;3.75;1.67;;;;;;;3.74;80.55;98027.41;5006607;28;20084;-60
2021/12/05 14:03:52;;;;;;;3.70;2.03;;;;;;;3.77;81.18;98028.81;5011099;28;20386;-60
2021/12/05 14:06:57;;;;;;;3.85;2.00;;;;;;;3.80;81.62;98033.69;5008589;28;20050;-60
2021/12/05 14:09:27;;;;;;;4.20;2.20;;;;;;;3.67;82.18;98043.44;5007707;28;20373;-60
2021/12/05 14:12:13;;;;;;;3.17;1.92;;;;;;;3.57;82.27;98052.94;5011422;28;20618;-60
2021/12/05 14:15:02;;;;;;;6.47;2.42;;;;;;;3.68;82.79;98055.66;5003836;28;20126;-60
2021/12/05 14:17:30;;;;;;;4.93;2.40;;;;;;;3.65;82.26;98061.41;5012766;28;20057;-60
2021/12/05 14:20:17;;;;;;;6.32;2.05;;;;;;;3.60;83.20;98063.13;5003856;28;20043;-60
2021/12/05 14:22:43;;;;;;;3.95;2.03;;;;;;;3.61;84.90;98065.53;5009204;28;20175;-60
2021/12/05 14:25:32;;;;;;;5.10;2.15;;;;;;;3.68;84.99;98065.44;5007494;28;20029;-60
2021/12/05 14:28:00;;;;;;;6.43;3.00;;;;;;;3.53;85.69;98067.69;5015624;28;20065;-60
2021/12/05 14:30:29;;;;;;;7.20;3.03;;;;;;;3.45;85.72;98066.19;5003100;28;20137;-61
2021/12/05 14:32:58;;;;;;;3.22;2.20;;;;;;;3.42;85.87;98075.38;5003625;28;20042;-62
2021/12/05 14:35:37;;;;;;;3.78;2.28;;;;;;;3.42;86.80;98071.91;5010643;28;20133;-63
2021/12/05 14:38:03;;;;;;;4.13;1.95;;;;;;;3.42;86.95;98077.19;5003212;28;20045;-60
2021/12/05 14:40:33;;;;;;;4.65;2.13;;;;;;;3.49;88.26;98077.91;5003001;28;20053;-60
2021/12/05 14:43:04;;;;;;;3.40;2.30;;;;;;;3.38;87.93;98078.69;5007234;28;20040;-60
2021/12/05 14:45:31;;;;;;;3.53;2.00;;;;;;;3.21;87.70;98081.94;5004624;28;20046;-61
2021/12/05 14:48:02;;;;;;;3.90;2.03;;;;;;;3.20;87.88;98085.63;5016272;28;20045;-60
2021/12/05 14:50:32;;;;;;;5.00;2.63;;;;;;;3.16;88.32;98089.75;5002645;28;20040;-60
2021/12/05 14:53:00;;;;;;;4.95;2.95;;;;;;;3.08;88.48;98091.91;5003830;28;20543;-60
2021/12/05 14:55:27;;;;;;;4.13;2.60;;;;;;;3.11;88.77;98108.16;5019296;28;20050;-60
2021/12/05 14:58:06;;;;;;;4.20;2.38;;;;;;;3.06;88.92;98108.00;5002651;28;20476;-60
2021/12/05 15:00:37;;;;;;;3.50;2.38;;;;;;;2.95;89.66;98111.41;5002831;28;20129;-60
2021/12/05 15:03:02;;;;;;;4.25;2.60;;;;;;;2.91;90.28;98115.50;5008589;28;20150;-60
2021/12/05 15:05:28;;;;;;;5.45;2.42;;;;;;;2.90;90.34;98121.84;5005468;28;20511;-61
2021/12/05 15:08:07;;;;;;;6.38;3.03;;;;;;;2.87;90.36;98123.09;5008204;28;20038;-61
2021/12/05 15:10:32;;;;;;;5.75;2.78;;;;;;;2.87;90.34;98123.09;5003381;28;20144;-62
2021/12/05 15:12:58;;;;;;;5.45;2.83;;;;;;;2.91;90.67;98126.09;5012884;28;20079;-61
2021/12/05 15:15:24;;;;;;;5.53;4.18;;;;;;;2.92;90.51;98130.34;5012471;28;20128;-59
2021/12/05 15:17:50;;;;;;;8.90;6.65;;;;;;;2.92;90.32;98135.63;5006841;28;20121;-59
2021/12/05 15:20:18;;;;;;;11.88;7.78;;;;;;;2.96;90.64;98134.19;5006255;28;20059;-62
2021/12/05 15:22:46;;;;;;;9.07;5.10;;;;;;;2.98;90.12;98145.38;5010796;28;20033;-61
2021/12/05 15:25:14;;;;;;;13.93;7.78;;;;;;;2.87;89.85;98144.25;5014371;28;20288;-62
2021/12/05 15:27:41;;;;;;;18.92;10.65;;;;;;;2.81;89.96;98148.56;5010024;28;20037;-61
2021/12/05 15:30:14;;;;;;;14.23;7.45;;;;;;;2.98;91.85;98156.75;5015492;28;20040;-60
2021/12/05 15:32:40;;;;;;;5.65;3.08;;;;;;;2.84;89.47;98159.75;5015166;28;20109;-59
2021/12/05 15:35:08;;;;;;;3.78;2.15;;;;;;;2.79;89.25;98163.84;5016946;28;20106;-60
2021/12/05 15:37:34;;;;;;;9.15;3.60;;;;;;;2.85;90.87;98171.97;5010388;28;20515;-60
2021/12/05 15:40:00;;;;;;;4.22;2.55;;;;;;;2.80;89.12;98172.63;5008778;28;20054;-60
2021/12/05 15:42:28;;;;;;;5.60;2.40;;;;;;;2.84;89.62;98175.63;5015009;28;20054;-60
2021/12/05 15:44:55;;;;;;;6.93;4.43;;;;;;;2.80;89.49;98178.72;5021062;28;20049;-61
2021/12/05 15:47:25;;;;;;;6.18;4.38;;;;;;;2.86;88.87;98184.16;5014238;28;20320;-60
2021/12/05 15:49:57;;;;;;;9.95;4.65;;;;;;;2.70;88.80;98180.25;5018868;28;20033;-60
2021/12/05 15:52:32;;;;;;;6.00;3.72;;;;;;;2.67;88.22;98185.94;5012044;28;20034;-60
2021/12/05 15:54:58;;;;;;;8.02;4.60;;;;;;;2.70;88.50;98189.00;5017014;28;20108;-61
2021/12/05 15:57:31;;;;;;;6.45;3.83;;;;;;;2.71;88.02;98187.16;5001245;28;20044;-60
2021/12/05 15:59:57;;;;;;;6.25;3.75;;;;;;;2.64;88.78;98192.47;5022041;28;20045;-61
2021/12/05 16:02:23;;;;;;;5.03;3.15;;;;;;;2.65;87.88;98194.13;5018445;28;20037;-64
2021/12/05 16:04:48;;;;;;;5.25;3.38;;;;;;;2.69;88.21;98194.50;5018765;28;20064;-60
2021/12/05 16:07:15;;;;;;;6.03;3.78;;;;;;;2.67;89.05;98202.66;5015547;28;20578;-60
2021/12/05 16:09:41;;;;;;;5.57;3.25;;;;;;;2.58;88.36;98203.94;5024317;28;20038;-60
2021/12/05 16:12:17;;;;;;;10.23;4.43;;;;;;;2.62;87.86;98207.78;5018583;28;20064;-60
2021/12/05 16:14:49;;;;;;;5.65;3.58;;;;;;;2.62;88.30;98212.25;5013492;28;20036;-60
2021/12/05 16:17:25;;;;;;;5.18;3.53;;;;;;;2.69;88.11;98211.16;5016334;28;20076;-60
2021/12/05 16:20:20;;;;;;;14.32;8.38;;;;;;;2.63;87.69;98212.03;5012443;28;21104;-60
2021/12/05 16:23:20;;;;;;;4.43;3.08;;;;;;;2.63;87.47;98222.63;5010620;28;20049;-61
2021/12/05 16:26:10;;;;;;;7.00;3.25;;;;;;;2.57;87.91;98224.31;5014411;28;20656;-61
2021/12/05 16:28:46;;;;;;;9.13;5.72;;;;;;;2.57;87.70;98218.19;5015419;28;20536;-61
2021/12/05 16:31:18;;;;;;;4.88;3.13;;;;;;;2.57;87.63;98220.81;5016397;28;20052;-61
2021/12/05 16:33:50;;;;;;;5.10;3.30;;;;;;;2.54;88.22;98223.91;5019109;28;20063;-61
2021/12/05 16:36:16;;;;;;;12.07;5.40;;;;;;;2.48;88.02;98224.78;5013988;28;20046;-61
2021/12/05 16:38:43;;;;;;;6.13;3.40;;;;;;;2.53;87.90;98223.09;5019963;28;20033;-61
2021/12/05 16:41:25;;;;;;;6.32;4.13;;;;;;;2.53;87.72;98232.88;5015744;28;20045;-61
2021/12/05 16:44:24;;;;;;;5.13;3.15;;;;;;;2.56;87.91;98237.72;5017457;28;20050;-60
2021/12/05 16:47:01;;;;;;;6.45;4.00;;;;;;;2.56;87.89;98232.44;4995633;28;20515;-61
2021/12/05 16:49:32;;;;;;;5.35;3.30;;;;;;;2.63;87.40;98232.41;5015421;28;20380;-61
2021/12/05 16:52:01;;;;;;;5.07;3.22;;;;;;;2.60;87.49;98236.28;5017678;28;20055;-61
2021/12/05 16:54:36;;;;;;;5.50;3.40;;;;;;;2.55;87.84;98241.41;5026001;28;20056;-61
2021/12/05 16:57:17;;;;;;;5.75;3.78;;;;;;;2.54;88.34;98250.34;5017356;28;20045;-61
2021/12/05 16:59:47;;;;;;;;;;;;;;;2.56;88.87;98258.91;5020469;28;20592;-61
2021/12/05 17:02:17;;;;;;;6.32;3.13;;;;;;;2.50;88.53;98259.78;5014124;28;20036;-61
2021/12/05 17:05:00;;;;;;;9.52;4.13;;;;;;;2.58;87.74;98262.16;5013044;28;20045;-61
2021/12/05 17:07:47;;;;;;;5.28;3.47;;;;;;;2.65;89.42;98264.75;5016260;28;20049;-61
2021/12/05 17:10:24;;;;;;;10.10;4.00;;;;;;;2.65;88.80;98268.19;5015397;28;20037;-61
2021/12/05 17:12:55;;;;;;;7.55;3.83;;;;;;;2.62;88.59;98271.28;5017382;28;20103;-59
2021/12/05 17:15:27;;;;;;;5.70;3.95;;;;;;;2.53;88.34;98280.50;5010343;28;20049;-62
2021/12/05 17:18:01;;;;;;;7.85;4.55;;;;;;;2.53;89.80;98280.50;5009645;28;20049;-59